• Join FlightAware (Why Join?)
  • Login
  • US Flag 
02:30AM EST


 

Airport Tracker/Info


-or-


 

Live Flight TrackerFlight Track Log ✈ NKS416 ✈ 11-Mar-2014 ✈ KFLL - KIAG

Flight Track Log - Related Links

Times and Time Zones

All times are in EDT time to prevent confusion due to time zone crossing. See the NKS416 flight status page for this flight to view local times or setup timezone preferences in your user account.

Time Position Orientation Groundspeed Altitude Reporting Facility
EDT Latitude Longitude Course Direction KTS MPH feet Rate Location/Type
12:10AM 26.0772 -80.1297 83° East 172 198 1,200  Level Miami Center
12:11AM 26.0822 -80.0861 83° East 177 204 2,700 1,765 Climbing Miami Center
12:11AM 26.0886 -80.0792 44° Northeast 182 209 2,700 1,452 Level Miami Center
12:12AM 26.1028 -80.0125 77° East 292 336 4,200 1,548 Climbing Miami Center
12:12AM 26.1092 -80.0058 43° Northeast 281 323 4,300 3,344 Climbing Miami Center
12:13AM 26.1464 -79.9233 63° Northeast 294 338 7,600 2,924 Climbing Miami Center
12:14AM 26.1836 -79.8364 64° Northeast 302 348 10,100 1,884 Climbing Miami Center
12:15AM 26.2294 -79.7381 63° Northeast 322 371 11,400 1,560 Climbing Miami Center
12:21AM 26.8884 -79.2385 26° Northeast 483 556 21,800 1,516 Climbing FlightAware ADS-B
12:23AM 27.0279 -79.1613 26° Northeast 497 572 23,000 1,109 Climbing FlightAware ADS-B
12:23AM 27.1331 -79.1033 26° Northeast 503 579 24,000 1,084 Climbing FlightAware ADS-B
12:24AM 27.2000 -79.0661 27° Northeast 509 586 24,500 1,143 Climbing FlightAware ADS-B
12:25AM 27.2649 -79.0305 24° Northeast 504 580 25,200 1,320 Climbing FlightAware ADS-B
12:25AM 27.3036 -79.0168 11° North 495 570 25,600 960 Climbing FlightAware ADS-B
12:25AM 27.3740 -79.0085 North 493 567 26,000 787 Climbing FlightAware ADS-B
12:26AM 27.4479 -79.0018 North 497 572 26,400 885 Climbing FlightAware ADS-B
12:26AM 27.5134 -78.9949 North 499 574 26,900 1,180 Climbing FlightAware ADS-B
12:27AM 27.5869 -78.9871 North 498 573 27,600 1,364 Climbing FlightAware ADS-B
12:28AM 27.7661 -78.9681 North 490 564 29,400 1,309 Climbing FlightAware ADS-B
12:29AM 27.8253 -78.9619 North 488 562 30,000 1,029 Climbing FlightAware ADS-B
12:29AM 27.9201 -78.9519 North 491 565 30,600 987 Climbing FlightAware ADS-B
12:30AM 28.0158 -78.9418 North 491 565 31,300 1,114 Climbing FlightAware ADS-B
12:31AM 28.0819 -78.9349 North 490 564 31,900 1,279 Climbing FlightAware ADS-B
12:31AM 28.1513 -78.9276 North 486 559 32,600 1,043 Climbing FlightAware ADS-B
12:32AM 28.2897 -78.9130 North 489 563 33,500 814 Climbing FlightAware ADS-B
12:33AM 28.4213 -78.8989 North 492 566 34,200 838 Climbing FlightAware ADS-B
12:36AM 28.7733 -78.8608 17° North 487 560 36,700 939 Climbing Miami Center
12:36AM 28.8224 -78.8560 North 477 549 37,000 305 Climbing FlightAware ADS-B
12:37AM 28.9042 -78.8478 North 478 550 37,000  Level Miami Center
12:38AM 29.0636 -78.8297 North 476 548 37,000 -50 Level Miami Center
12:39AM 29.0881 -78.7609 17° North  Level FlightAware Approximate
12:39AM 29.1983 -78.8156 North 483 556 36,900  Level Miami Center
12:40AM 29.1944 -78.7227 17° North  Level FlightAware Approximate
12:40AM 29.3333 -78.8011 North 485 558 36,900  Level Miami Center
12:41AM 29.3006 -78.6845 17° North  Level FlightAware Approximate
12:41AM 29.4681 -78.7875 North 486 559 37,000  Level Miami Center
12:42AM 29.6019 -78.7725 North 483 556 36,900  Descending Miami Center
12:43AM 29.7342 -78.7569 North 481 554 37,000 49 Climbing Miami Center
12:44AM 29.8686 -78.7436 North 482 555 37,000 -50 Level Miami Center
12:45AM 30.0019 -78.7283 North 482 555 36,900  Descending Miami Center
12:46AM 30.1197 -78.7158 North 482 555 37,000 Climbing Miami Center
01:01AM 32.0983 -78.4933 North 440 506 37,000 -6 Level Jacksonville Center
01:02AM 32.0003 -78.2523 North  Level FlightAware Approximate
01:02AM 32.2189 -78.4797 North 438 504 36,900  Level Jacksonville Center
01:03AM 32.1224 -78.2324 North  Level FlightAware Approximate
01:03AM 32.3386 -78.4647 North 437 503 36,900  Level Jacksonville Center
01:04AM 32.2445 -78.2121 North  Level FlightAware Approximate
01:04AM 32.4661 -78.4508 North 435 501 36,900  Level Jacksonville Center
01:05AM 32.3666 -78.1917 North  Level FlightAware Approximate
01:05AM 32.5867 -78.4375 North 435 501 36,900  Level Jacksonville Center
01:06AM 32.4886 -78.1712 North  Level FlightAware Approximate
01:06AM 32.7081 -78.4447 357° North 435 501 37,000  Level Jacksonville Center
01:07AM 32.6107 -78.1507 North  Level FlightAware Approximate
01:07AM 32.8283 -78.4494 358° North 435 501 37,000  Level Jacksonville Center
01:08AM 32.9469 -78.4542 358° North 432 497 36,900 -50 Descending Jacksonville Center
01:09AM 33.0658 -78.4586 358° North 430 495 36,900 50 Level Jacksonville Center
01:10AM 33.1861 -78.4647 358° North 428 493 37,000 50 Climbing Jacksonville Center
01:11AM 33.3058 -78.4694 358° North 429 494 37,000  Level Jacksonville Center
01:12AM 33.4256 -78.4736 358° North 429 494 37,000  Level Jacksonville Center
01:13AM 33.5442 -78.4794 358° North 429 494 37,000 -50 Level Jacksonville Center
01:14AM 33.6636 -78.4847 358° North 429 494 36,900 -50 Descending Jacksonville Center
01:15AM 33.7831 -78.4908 358° North 428 493 36,900 50 Level Jacksonville Center
01:16AM 33.9033 -78.4956 358° North 428 493 37,000 50 Climbing Jacksonville Center
01:17AM 34.0222 -78.5025 357° North 428 493 37,000 -50 Level Jacksonville Center
01:18AM 34.1414 -78.5094 357° North 427 491 36,900  Descending Jacksonville Center
01:19AM 34.2628 -78.5142 358° North 428 493 37,000 18 Climbing Jacksonville Center
01:24AM 34.8068 -78.5351 358° North 431 496 37,000  Level FlightAware ADS-B (KJNX)
01:25AM 35.0093 -78.5439 358° North 431 496 37,000  Level FlightAware ADS-B (KJNX)
01:27AM 35.1925 -78.5520 357° North 429 494 37,000  Level FlightAware ADS-B (KJNX)
01:28AM 35.2840 -78.5562 357° North 429 494 37,000  Level FlightAware ADS-B (KJNX)
01:28AM 35.3653 -78.5598 358° North 430 495 37,000  Level FlightAware ADS-B (KJNX)
01:29AM 35.4401 -78.5631 357° North 429 494 37,000  Level FlightAware ADS-B (KJNX)
01:30AM 35.5191 -78.5667 357° North 430 495 37,000  Level FlightAware ADS-B (KJNX)
01:30AM 35.6011 -78.5703 357° North 431 496 37,000  Level FlightAware ADS-B (KJNX)
01:31AM 35.6800 -78.5740 357° North 432 497 37,000  Level FlightAware ADS-B (KJNX)
01:32AM 35.7644 -78.5777 357° North 434 499 37,000  Level FlightAware ADS-B (KJNX)
01:32AM 35.8455 -78.5815 357° North 445 512 37,000  Level FlightAware ADS-B (KJNX)
01:33AM 35.9226 -78.5848 357° North 445 512 37,000  Level FlightAware ADS-B (KJNX)
01:34AM 36.0039 -78.5908 357° North 435 501 37,000  Level Washington Center
01:35AM 36.1267 -78.5981 357° North 440 506 37,000  Level Washington Center
01:36AM 36.2497 -78.6028 358° North 440 506 37,000  Level Washington Center
01:37AM 36.3747 -78.6103 357° North 440 506 37,000  Level Washington Center
01:38AM 36.4956 -78.6150 358° North 440 506 37,000  Level Washington Center
01:39AM 36.6206 -78.6197 358° North 440 506 37,000  Level Washington Center
01:40AM 36.7417 -78.6219 359° North 440 506 37,000  Level Washington Center
01:41AM 36.8667 -78.6267 358° North 440 506 37,000  Level Washington Center
01:42AM 36.9894 -78.6342 357° North 440 506 37,000  Level Washington Center
01:43AM 37.1022 -78.6386 358° North 440 506 37,000  Level Washington Center
01:44AM 37.2250 -78.6436 358° North 440 506 37,000  Level Washington Center
01:45AM 37.3500 -78.6511 357° North 440 506 37,000  Level Washington Center
01:46AM 37.4875 -78.6567 358° North 448 516 37,000  Level Washington Center
01:47AM 37.6125 -78.6644 357° North 448 516 37,000  Level Washington Center
01:48AM 37.7375 -78.6694 358° North 448 516 37,000  Level Washington Center
01:49AM 37.8481 -78.6739 358° North 443 510 37,000  Level Washington Center
01:50AM 37.9667 -78.6814 357° North 436 502 37,000  Level Washington Center
01:51AM 38.0875 -78.6864 358° North 436 502 37,000  Level Washington Center
01:52AM 38.2208 -78.6944 357° North 436 502 37,000  Level Washington Center
01:53AM 38.3269 -78.6989 358° North 436 502 37,000  Level Washington Center
01:54AM 38.4456 -78.7067 357° North 430 495 37,000  Level Washington Center
01:56AM 38.7483 -78.7179 358° North 443 510 37,000  Level FlightAware ADS-B (KWWD)
01:57AM 38.8408 -78.7236 358° North 441 507 37,000  Level Cleveland Center
01:58AM 38.9642 -78.7294 358° North 441 507 37,000  Level Cleveland Center
01:59AM 39.0911 -78.7364 358° North 451 519 37,000  Level Cleveland Center
02:04AM 39.7577 -78.7679 358° North 463 533 37,000  Level FlightAware ADS-B (KWWD)
02:07AM 40.1273 -78.7869 358° North 448 516 37,000  Level FlightAware ADS-B
02:09AM 40.3643 -78.7986 358° North 463 533 37,000 -13 Level FlightAware ADS-B
02:14AM 41.0819 -78.8361 358° North 468 539 36,900 -67 Descending FlightAware ADS-B (CYYZ)
02:15AM 41.1443 -78.8392 358° North 466 536 36,600 -689 Descending FlightAware ADS-B (CYYZ)
02:15AM 41.2129 -78.8428 358° North 454 522 36,200 -774 Descending FlightAware ADS-B (CYYZ)
02:16AM 41.2742 -78.8461 358° North 450 518 35,800 -1,500 Descending FlightAware ADS-B (CYYZ)
02:16AM 41.3521 -78.8504 358° North 454 522 34,500 -2,197 Descending FlightAware ADS-B (CYYZ)
02:17AM 41.4194 -78.8539 358° North 459 528 33,200 -2,557 Descending FlightAware ADS-B (CYYZ)
02:17AM 41.4824 -78.8570 358° North 462 532 31,900 -2,586 Descending FlightAware ADS-B (CYYZ)
02:18AM 41.5479 -78.8605 358° North 461 531 30,700 -2,262 Descending FlightAware ADS-B (CYYZ)
02:18AM 41.6137 -78.8639 358° North 457 526 29,600 -2,164 Descending FlightAware ADS-B (CYYZ)
02:19AM 41.6762 -78.8671 358° North 452 520 28,500 -2,136 Descending FlightAware ADS-B (CYYZ)
02:19AM 41.7358 -78.8704 358° North 447 514 27,500 -2,136 Descending FlightAware ADS-B (CYYZ)
02:20AM 41.7971 -78.8737 358° North 442 509 26,400 -2,164 Descending FlightAware ADS-B (CYYZ)
02:20AM 41.8595 -78.8770 358° North 439 505 25,300 -2,164 Descending FlightAware ADS-B (CYYZ)
02:21AM 41.9205 -78.8803 358° North 435 501 24,200 -1,966 Descending FlightAware ADS-B (CYYZ)
02:21AM 41.9720 -78.8830 358° North 422 486 23,400 -2,100 Descending FlightAware ADS-B (CYYZ)
02:22AM 42.0386 -78.8866 358° North 415 478 22,100 -2,459 Descending FlightAware ADS-B (CYYZ)
02:22AM 42.0920 -78.8896 358° North 412 474 20,900 -2,300 Descending FlightAware ADS-B (CYYZ)
02:23AM 42.1522 -78.8926 358° North 402 463 19,800 -2,200 Descending FlightAware ADS-B (CYYZ)
02:23AM 42.2033 -78.8956 358° North 398 458 18,700 -2,339 Descending FlightAware ADS-B (CYYZ)
02:24AM 42.2588 -78.8986 358° North 393 452 17,500 -2,300 Descending FlightAware ADS-B (CYYZ)
02:24AM 42.3135 -78.9016 358° North 388 447 16,400 -2,125 Descending FlightAware ADS-B (CYYZ)
02:25AM 42.3452 -78.9011 North 390 449 15,800 -2,129 Descending FlightAware ADS-B (CYYZ)
02:25AM 42.3689 -78.8924 19° North 397 457 15,300 -2,233 Descending FlightAware ADS-B (CYYZ)
02:25AM 42.4190 -78.8651 22° Northeast 397 457 14,200 -2,379 Descending FlightAware ADS-B (CYYZ)
02:26AM 42.4666 -78.8390 21° North 397 457 13,000 -2,066 Descending FlightAware ADS-B (CYYZ)
02:26AM 42.5228 -78.8102 20° North 384 442 12,100 -1,548 Descending FlightAware ADS-B (CYYZ)
02:27AM 42.5712 -78.7858 20° North 367 422 11,400 -1,448 Descending FlightAware ADS-B (CYYZ)
02:27AM 42.6159 -78.7644 19° North 361 415 10,700 -1,100 Descending FlightAware ADS-B (CYYZ)
02:28AM 42.6625 -78.7419 19° North 340 391 10,300 -689 Descending FlightAware ADS-B (CYYZ)
02:28AM 42.7054 -78.7212 19° North 321 369 10,000 -818 Descending FlightAware ADS-B (CYYZ)
02:29AM 42.7252 -78.7117 19° North 315 362 9,700 -1,241 Descending FlightAware ADS-B (CYYZ)
02:29AM 42.7469 -78.7014 19° North 312 359 9,400 -1,200 Descending FlightAware ADS-B (CYYZ)
02:29AM 42.7659 -78.6918 20° North 308 354 9,100 -1,071 Descending FlightAware ADS-B (CYYZ)
02:29AM 42.7818 -78.6834 21° North 303 349 8,900 -938 Descending FlightAware ADS-B (CYYZ)
02:30AM 42.8083 -78.6691 21° North 296 341 8,600 -1,263 Descending FlightAware ADS-B (CYYZ)
02:30AM 42.8314 -78.6569 21° North 296 341 8,100 -1,765 Descending FlightAware ADS-B (CYYZ)
02:30AM 42.8489 -78.6477 20° North 298 343 7,600 -1,448 Descending FlightAware ADS-B (CYYZ)
02:30AM 42.8681 -78.6382 19° North 291 335 7,400 -1,000 Descending FlightAware ADS-B (CYYZ)
02:31AM 42.8883 -78.6286 19° North 286 329 7,100 -1,355 Descending FlightAware ADS-B (CYYZ)
02:31AM 42.9074 -78.6197 19° North 285 328 6,700 -1,469 Descending FlightAware ADS-B (CYYZ)
02:31AM 42.9499 -78.6084 356° North 268 308 5,900 -1,224 Descending FlightAware ADS-B (CYYZ)
02:32AM 42.9657 -78.6118 350° North 255 293 5,700 -600 Descending FlightAware ADS-B (CYYZ)
02:32AM 42.9836 -78.6163 350° North 238 274 5,600 -1,368 Descending FlightAware ADS-B (CYYZ)
02:33AM 43.0225 -78.6261 350° North 240 276 4,400 -1,824 Descending Cleveland Center
02:34AM 43.0847 -78.6492 345° North 234 269 2,500 -1,050 Descending Cleveland Center
02:35AM 43.1081 -78.7194 294° West 214 246 2,300 -100 Descending Cleveland Center
02:36AM 43.1086 -78.7947 271° West 203 234 2,300 -350 Level Cleveland Center
02:37AM 43.1089 -78.8575 270° West 163 188 1,600 -400 Descending Cleveland Center
02:38AM 43.1075 -78.9106 268° West 158 182 1,500 -100 Descending Cleveland Center